createdAt,value
2023-02-08T00:00:54.346Z,1034.98
2023-02-08T00:01:54.363Z,1034.99
2023-02-08T00:03:54.764Z,1034.97
2023-02-08T00:04:54.456Z,1034.93
2023-02-08T00:06:54.500Z,1034.92
2023-02-08T00:07:54.526Z,1034.95
2023-02-08T00:08:54.554Z,1034.92
2023-02-08T00:09:54.592Z,1034.91
2023-02-08T00:10:54.905Z,1034.92
2023-02-08T00:12:54.709Z,1034.94
2023-02-08T00:13:54.689Z,1034.90
2023-02-08T00:15:54.806Z,1034.91
2023-02-08T00:16:54.768Z,1034.96
2023-02-08T00:17:55.102Z,1034.90
2023-02-08T00:18:54.820Z,1034.90
2023-02-08T00:19:54.871Z,1034.96
2023-02-08T00:21:54.899Z,1034.93
2023-02-08T00:22:54.928Z,1034.92
2023-02-08T00:23:54.955Z,1034.87
2023-02-08T00:24:55.281Z,1034.85
2023-02-08T00:25:55.012Z,1034.85
2023-02-08T00:26:55.134Z,1034.82
2023-02-08T00:27:55.085Z,1034.82
2023-02-08T00:29:55.127Z,1034.76
2023-02-08T00:30:55.289Z,1034.76
2023-02-08T00:31:55.538Z,1034.73
2023-02-08T00:32:55.198Z,1034.71
2023-02-08T00:33:55.330Z,1034.74
2023-02-08T00:34:55.243Z,1034.73
2023-02-08T00:35:55.396Z,1034.74
2023-02-08T00:36:55.306Z,1034.74
2023-02-08T00:37:55.336Z,1034.80
2023-02-08T00:38:55.654Z,1034.78
2023-02-08T00:39:55.384Z,1034.79
2023-02-08T00:41:55.435Z,1034.73
2023-02-08T00:43:55.485Z,1034.73
2023-02-08T00:44:55.511Z,1034.67
2023-02-08T00:47:55.596Z,1034.74
2023-02-08T00:48:55.623Z,1034.75
2023-02-08T00:49:55.692Z,1034.72
2023-02-08T00:50:55.678Z,1034.69
2023-02-08T00:51:55.722Z,1034.71
2023-02-08T00:52:55.728Z,1034.69
2023-02-08T00:53:56.062Z,1034.70
2023-02-08T00:54:55.790Z,1034.71
2023-02-08T00:55:55.804Z,1034.67
2023-02-08T00:56:55.833Z,1034.69
2023-02-08T00:57:55.869Z,1034.69
2023-02-08T00:58:55.884Z,1034.69
2023-02-08T00:59:55.914Z,1034.73
2023-02-08T01:02:55.993Z,1034.68
2023-02-08T01:03:56.033Z,1034.69
2023-02-08T01:04:56.045Z,1034.66
2023-02-08T01:05:56.072Z,1034.71
2023-02-08T01:06:56.111Z,1034.70
2023-02-08T01:07:56.455Z,1034.69
2023-02-08T01:08:56.151Z,1034.72
2023-02-08T01:09:56.186Z,1034.70
2023-02-08T01:10:56.215Z,1034.71
2023-02-08T01:11:56.231Z,1034.72
2023-02-08T01:12:56.263Z,1034.68
2023-02-08T01:13:56.287Z,1034.72
2023-02-08T01:14:56.609Z,1034.71
2023-02-08T01:15:56.415Z,1034.71
2023-02-08T01:17:56.411Z,1034.67
2023-02-08T01:19:56.502Z,1034.72
2023-02-08T01:20:56.572Z,1034.72
2023-02-08T01:21:56.804Z,1034.74
2023-02-08T01:22:56.525Z,1034.71
2023-02-08T01:24:56.602Z,1034.71
2023-02-08T01:25:56.607Z,1034.73
2023-02-08T01:27:57.289Z,1034.71
2023-02-08T01:28:56.694Z,1034.67
2023-02-08T01:29:56.740Z,1034.72
2023-02-08T01:30:56.783Z,1034.73
2023-02-08T01:35:57.177Z,1034.67
2023-02-08T01:36:56.905Z,1034.65
2023-02-08T01:37:56.939Z,1034.64
2023-02-08T01:39:56.979Z,1034.62
2023-02-08T01:42:57.380Z,1034.66
2023-02-08T01:43:57.083Z,1034.70
2023-02-08T01:44:57.111Z,1034.66
2023-02-08T01:45:57.253Z,1034.66
2023-02-08T01:47:57.190Z,1034.67
2023-02-08T01:48:57.228Z,1034.65
2023-02-08T01:49:57.550Z,1034.65
2023-02-08T01:50:57.283Z,1034.60
2023-02-08T01:52:57.327Z,1034.62
2023-02-08T01:53:57.351Z,1034.62
2023-02-08T01:54:57.383Z,1034.57
2023-02-08T01:55:57.403Z,1034.55
2023-02-08T01:56:57.758Z,1034.55
2023-02-08T01:57:57.465Z,1034.53
2023-02-08T01:59:57.528Z,1034.52
2023-02-08T02:00:57.694Z,1034.47
2023-02-08T02:01:57.564Z,1034.45
2023-02-08T02:02:57.597Z,1034.48
2023-02-08T02:04:57.962Z,1034.44
2023-02-08T02:06:57.697Z,1034.44
2023-02-08T02:07:57.734Z,1034.49
2023-02-08T02:09:57.801Z,1034.43
2023-02-08T02:10:57.807Z,1034.44
2023-02-08T02:11:58.128Z,1034.46
2023-02-08T02:12:57.856Z,1034.44
2023-02-08T02:13:57.886Z,1034.46
2023-02-08T02:14:57.911Z,1034.44
2023-02-08T02:15:57.952Z,1034.46
2023-02-08T02:16:57.957Z,1034.48
2023-02-08T02:17:57.990Z,1034.46
2023-02-08T02:18:58.313Z,1034.42
2023-02-08T02:19:58.044Z,1034.46
2023-02-08T02:20:58.376Z,1034.47
2023-02-08T02:21:58.097Z,1034.47
2023-02-08T02:22:58.136Z,1034.47
2023-02-08T02:23:58.158Z,1034.45
2023-02-08T02:24:58.244Z,1034.49
2023-02-08T02:25:58.509Z,1034.51
2023-02-08T02:26:58.287Z,1034.50
2023-02-08T02:27:58.326Z,1034.46
2023-02-08T02:28:58.310Z,1034.50
2023-02-08T02:29:58.316Z,1034.50
2023-02-08T02:32:58.708Z,1034.53
2023-02-08T02:33:58.411Z,1034.52
2023-02-08T02:34:58.451Z,1034.48
2023-02-08T02:35:58.466Z,1034.47
2023-02-08T02:37:58.521Z,1034.51
2023-02-08T02:38:58.547Z,1034.46
2023-02-08T02:39:58.911Z,1034.46
2023-02-08T02:40:58.613Z,1034.47
2023-02-08T02:41:58.626Z,1034.45
2023-02-08T02:42:58.654Z,1034.44
2023-02-08T02:43:58.679Z,1034.46
2023-02-08T02:44:58.715Z,1034.45
2023-02-08T02:46:59.057Z,1034.48
2023-02-08T02:47:58.794Z,1034.48
2023-02-08T02:48:58.876Z,1034.48
2023-02-08T02:49:58.847Z,1034.47
2023-02-08T02:50:58.900Z,1034.44
2023-02-08T02:51:58.937Z,1034.46
2023-02-08T02:53:59.256Z,1034.43
2023-02-08T02:54:58.979Z,1034.43
2023-02-08T02:56:59.130Z,1034.44
2023-02-08T02:57:59.068Z,1034.42
2023-02-08T02:58:59.090Z,1034.41
2023-02-08T02:59:59.411Z,1034.39
2023-02-08T03:00:59.163Z,1034.37
2023-02-08T03:01:59.180Z,1034.36
2023-02-08T03:02:59.202Z,1034.37
2023-02-08T03:04:59.267Z,1034.37
2023-02-08T03:05:59.268Z,1034.39
2023-02-08T03:06:59.593Z,1034.36
2023-02-08T03:07:59.321Z,1034.40
2023-02-08T03:08:59.351Z,1034.36
2023-02-08T03:09:59.371Z,1034.39
2023-02-08T03:14:59.816Z,1034.35
2023-02-08T03:15:59.633Z,1034.32
2023-02-08T03:16:59.648Z,1034.33
2023-02-08T03:17:59.587Z,1034.32
2023-02-08T03:18:59.615Z,1034.36
2023-02-08T03:19:59.655Z,1034.32
2023-02-08T03:20:59.985Z,1034.36
2023-02-08T03:21:59.695Z,1034.35
2023-02-08T03:22:59.719Z,1034.35
2023-02-08T03:23:59.745Z,1034.35
2023-02-08T03:24:59.829Z,1034.35
2023-02-08T03:25:59.799Z,1034.36
2023-02-08T03:27:00.276Z,1034.39
2023-02-08T03:27:59.898Z,1034.37
2023-02-08T03:28:59.880Z,1034.35
2023-02-08T03:29:59.907Z,1034.36
2023-02-08T03:31:00.013Z,1034.37
2023-02-08T03:33:00.293Z,1034.32
2023-02-08T03:34:00.013Z,1034.31
2023-02-08T03:35:00.048Z,1034.29
2023-02-08T03:36:00.069Z,1034.34
2023-02-08T03:37:00.126Z,1034.28
2023-02-08T03:38:00.122Z,1034.31
2023-02-08T03:39:00.243Z,1034.28
2023-02-08T03:40:00.472Z,1034.30
2023-02-08T03:42:00.225Z,1034.32
2023-02-08T03:43:00.299Z,1034.34
2023-02-08T03:44:00.292Z,1034.34
2023-02-08T03:45:00.309Z,1034.38
2023-02-08T03:46:00.355Z,1034.39
2023-02-08T03:47:00.655Z,1034.35
2023-02-08T03:48:00.398Z,1034.40
2023-02-08T03:49:00.409Z,1034.40
2023-02-08T03:50:00.449Z,1034.41
2023-02-08T03:52:00.488Z,1034.40
2023-02-08T03:53:00.532Z,1034.41
2023-02-08T03:54:00.838Z,1034.41
2023-02-08T03:55:00.571Z,1034.38
2023-02-08T03:56:00.591Z,1034.32
2023-02-08T03:57:00.617Z,1034.36
2023-02-08T03:58:00.695Z,1034.37
2023-02-08T03:59:00.672Z,1034.35
2023-02-08T04:00:00.723Z,1034.36
2023-02-08T04:01:01.025Z,1034.37
2023-02-08T04:02:00.751Z,1034.42
2023-02-08T04:03:00.787Z,1034.38
2023-02-08T04:04:00.818Z,1034.37
2023-02-08T04:05:00.834Z,1034.41
2023-02-08T04:06:00.860Z,1034.39
2023-02-08T04:07:00.878Z,1034.38
2023-02-08T04:08:01.209Z,1034.39
2023-02-08T04:09:00.955Z,1034.38
2023-02-08T04:10:00.958Z,1034.40
2023-02-08T04:11:00.988Z,1034.39
2023-02-08T04:13:01.038Z,1034.40
2023-02-08T04:15:01.397Z,1034.36
2023-02-08T04:16:01.125Z,1034.35
2023-02-08T04:17:01.145Z,1034.35
2023-02-08T04:18:01.200Z,1034.38
2023-02-08T04:19:01.200Z,1034.34
2023-02-08T04:20:01.220Z,1034.37
2023-02-08T04:21:01.258Z,1034.37
2023-02-08T04:22:01.585Z,1034.32
2023-02-08T04:23:01.421Z,1034.32
2023-02-08T04:24:01.323Z,1034.34
2023-02-08T04:25:01.378Z,1034.35
2023-02-08T04:26:01.383Z,1034.35
2023-02-08T04:28:01.795Z,1034.33
2023-02-08T04:29:01.474Z,1034.34
2023-02-08T04:30:01.576Z,1034.34
2023-02-08T04:31:01.672Z,1034.36
2023-02-08T04:32:01.557Z,1034.39
2023-02-08T04:33:01.566Z,1034.37
2023-02-08T04:34:01.892Z,1034.40
2023-02-08T04:35:01.626Z,1034.38
2023-02-08T04:36:01.658Z,1034.36
2023-02-08T04:37:01.677Z,1034.41
2023-02-08T04:38:01.707Z,1034.43
2023-02-08T04:39:01.722Z,1034.44
2023-02-08T04:40:02.065Z,1034.38
2023-02-08T04:41:01.796Z,1034.40
2023-02-08T04:42:03.371Z,1034.40
2023-02-08T04:43:01.833Z,1034.40
2023-02-08T04:44:01.868Z,1034.38
2023-02-08T04:45:01.883Z,1034.37
2023-02-08T04:46:02.270Z,1034.38
2023-02-08T04:47:01.951Z,1034.35
2023-02-08T04:48:01.965Z,1034.36
2023-02-08T04:49:01.990Z,1034.34
2023-02-08T04:50:02.020Z,1034.33
2023-02-08T04:51:02.054Z,1034.34
2023-02-08T04:52:02.069Z,1034.33
2023-02-08T04:53:02.419Z,1034.30
2023-02-08T04:54:02.126Z,1034.32
2023-02-08T04:55:02.152Z,1034.34
2023-02-08T04:56:02.178Z,1034.34
2023-02-08T04:57:02.218Z,1034.39
2023-02-08T04:58:02.231Z,1034.34
2023-02-08T04:59:02.293Z,1034.36
2023-02-08T05:00:02.615Z,1034.31
2023-02-08T05:01:02.305Z,1034.33
2023-02-08T05:02:02.341Z,1034.32
2023-02-08T05:03:02.363Z,1034.26
2023-02-08T05:04:02.389Z,1034.30
2023-02-08T05:05:02.470Z,1034.27
2023-02-08T05:06:02.443Z,1034.28
2023-02-08T05:07:02.768Z,1034.30
2023-02-08T05:08:02.511Z,1034.27
2023-02-08T05:09:02.809Z,1034.28
2023-02-08T05:10:02.550Z,1034.28
2023-02-08T05:11:02.572Z,1034.30
2023-02-08T05:12:02.605Z,1034.27
2023-02-08T05:13:02.636Z,1034.32
2023-02-08T05:14:02.956Z,1034.37
2023-02-08T05:15:02.667Z,1034.34
2023-02-08T05:16:02.816Z,1034.33
2023-02-08T05:17:02.748Z,1034.40
2023-02-08T05:19:02.789Z,1034.41
2023-02-08T05:20:02.810Z,1034.40
2023-02-08T05:21:03.137Z,1034.43
2023-02-08T05:22:02.853Z,1034.39
2023-02-08T05:23:02.883Z,1034.43
2023-02-08T05:24:02.908Z,1034.40
2023-02-08T05:25:02.942Z,1034.38
2023-02-08T05:26:02.955Z,1034.35
2023-02-08T05:27:02.995Z,1034.36
2023-02-08T05:28:03.315Z,1034.36
2023-02-08T05:29:03.063Z,1034.38
2023-02-08T05:30:03.067Z,1034.31
2023-02-08T05:31:03.194Z,1034.33
2023-02-08T05:33:03.141Z,1034.31
2023-02-08T05:34:03.171Z,1034.30
2023-02-08T05:35:03.510Z,1034.28
2023-02-08T05:36:05.154Z,1034.27
2023-02-08T05:37:03.244Z,1034.31
2023-02-08T05:38:03.276Z,1034.30
2023-02-08T05:39:03.300Z,1034.27
2023-02-08T05:40:03.318Z,1034.33
2023-02-08T05:41:03.351Z,1034.35
2023-02-08T05:42:03.674Z,1034.35
2023-02-08T05:43:03.399Z,1034.36
2023-02-08T05:44:03.438Z,1034.37
2023-02-08T05:45:03.635Z,1034.36
2023-02-08T05:46:03.532Z,1034.36
2023-02-08T05:47:03.627Z,1034.37
2023-02-08T05:48:03.544Z,1034.39
2023-02-08T05:49:03.877Z,1034.38
2023-02-08T05:50:03.594Z,1034.37
2023-02-08T05:51:03.637Z,1034.37
2023-02-08T05:52:04.025Z,1034.37
2023-02-08T05:54:03.705Z,1034.34
2023-02-08T05:55:03.824Z,1034.38
2023-02-08T05:56:04.065Z,1034.38
2023-02-08T05:57:03.784Z,1034.40
2023-02-08T05:58:03.790Z,1034.36
2023-02-08T05:59:03.822Z,1034.37
2023-02-08T06:00:03.861Z,1034.36
2023-02-08T06:01:03.900Z,1034.36
2023-02-08T06:02:03.898Z,1034.36
2023-02-08T06:03:04.267Z,1034.30
2023-02-08T06:04:03.959Z,1034.34
2023-02-08T06:05:03.976Z,1034.38
2023-02-08T06:06:04.001Z,1034.33
2023-02-08T06:07:04.049Z,1034.38
2023-02-08T06:08:04.059Z,1034.37
2023-02-08T06:10:04.420Z,1034.39
2023-02-08T06:11:04.158Z,1034.42
2023-02-08T06:12:04.183Z,1034.40
2023-02-08T06:13:04.198Z,1034.40
2023-02-08T06:14:04.212Z,1034.41
2023-02-08T06:15:04.244Z,1034.41
2023-02-08T06:16:04.635Z,1034.39
2023-02-08T06:17:04.311Z,1034.43
2023-02-08T06:18:04.320Z,1034.46
2023-02-08T06:19:04.356Z,1034.48
2023-02-08T06:20:04.479Z,1034.48
2023-02-08T06:21:04.405Z,1034.43
2023-02-08T06:22:04.720Z,1034.46
2023-02-08T06:23:04.445Z,1034.42
2023-02-08T06:24:04.483Z,1034.51
2023-02-08T06:25:04.502Z,1034.47
2023-02-08T06:26:04.607Z,1034.48
2023-02-08T06:27:04.556Z,1034.44
2023-02-08T06:28:04.935Z,1034.44
2023-02-08T06:29:04.624Z,1034.43
2023-02-08T06:30:04.747Z,1034.42
2023-02-08T06:31:04.671Z,1034.40
2023-02-08T06:32:04.766Z,1034.45
2023-02-08T06:33:04.733Z,1034.42
2023-02-08T06:34:04.757Z,1034.39
2023-02-08T06:36:04.807Z,1034.40
2023-02-08T06:37:04.844Z,1034.45
2023-02-08T06:38:04.960Z,1034.47
2023-02-08T06:39:04.875Z,1034.49
2023-02-08T06:40:04.997Z,1034.48
2023-02-08T06:41:05.230Z,1034.50
2023-02-08T06:42:05.012Z,1034.46
2023-02-08T06:43:04.973Z,1034.46
2023-02-08T06:44:04.998Z,1034.50
2023-02-08T06:45:05.029Z,1034.45
2023-02-08T06:46:05.156Z,1034.54
2023-02-08T06:47:05.104Z,1034.49
2023-02-08T06:48:05.416Z,1034.49
2023-02-08T06:49:05.147Z,1034.48
2023-02-08T06:50:05.154Z,1034.52
2023-02-08T06:51:05.187Z,1034.51
2023-02-08T06:52:05.207Z,1034.50
2023-02-08T06:53:05.234Z,1034.53
2023-02-08T06:54:05.264Z,1034.50
2023-02-08T06:55:05.589Z,1034.47
2023-02-08T06:56:05.322Z,1034.50
2023-02-08T06:57:05.355Z,1034.51
2023-02-08T06:58:05.432Z,1034.48
2023-02-08T06:59:05.395Z,1034.44
2023-02-08T07:00:05.422Z,1034.47
2023-02-08T07:01:05.495Z,1034.45
2023-02-08T07:02:05.831Z,1034.43
2023-02-08T07:03:05.527Z,1034.42
2023-02-08T07:04:05.618Z,1034.43
2023-02-08T07:05:05.566Z,1034.38
2023-02-08T07:06:05.992Z,1034.39
2023-02-08T07:07:05.602Z,1034.35
2023-02-08T07:08:05.630Z,1034.32
2023-02-08T07:09:05.661Z,1034.31
2023-02-08T07:10:05.679Z,1034.29
2023-02-08T07:11:05.722Z,1034.26
2023-02-08T07:12:06.811Z,1034.29
2023-02-08T07:13:06.621Z,1034.31
2023-02-08T07:14:05.789Z,1034.26
2023-02-08T07:15:06.124Z,1034.32
2023-02-08T07:16:05.840Z,1034.29
2023-02-08T07:17:05.873Z,1034.25
2023-02-08T07:18:05.903Z,1034.26
2023-02-08T07:19:05.934Z,1034.23
2023-02-08T07:20:05.944Z,1034.24
2023-02-08T07:21:06.308Z,1034.24
2023-02-08T07:22:07.521Z,1034.26
2023-02-08T07:23:06.030Z,1034.26
2023-02-08T07:24:06.060Z,1034.30
2023-02-08T07:25:06.173Z,1034.31
2023-02-08T07:26:06.116Z,1034.29
2023-02-08T07:27:06.431Z,1034.31
2023-02-08T07:28:06.249Z,1034.30
2023-02-08T07:29:06.179Z,1034.27
2023-02-08T07:30:06.219Z,1034.25
2023-02-08T07:31:06.279Z,1034.24
2023-02-08T07:33:06.581Z,1034.27
2023-02-08T07:34:06.311Z,1034.26
2023-02-08T07:36:06.369Z,1034.24
2023-02-08T07:37:06.420Z,1034.27
2023-02-08T07:38:06.424Z,1034.27
2023-02-08T07:39:06.453Z,1034.30
2023-02-08T07:40:06.591Z,1034.31
2023-02-08T07:41:06.547Z,1034.33
2023-02-08T07:42:06.586Z,1034.29
2023-02-08T07:43:06.570Z,1034.30
2023-02-08T07:44:06.695Z,1034.33
2023-02-08T07:45:06.606Z,1034.26
2023-02-08T07:46:06.675Z,1034.24
2023-02-08T07:47:06.679Z,1034.24
2023-02-08T07:48:06.688Z,1034.25
2023-02-08T07:49:06.715Z,1034.20
2023-02-08T07:50:06.733Z,1034.20
2023-02-08T07:51:06.758Z,1034.17
2023-02-08T07:52:06.786Z,1034.16
2023-02-08T07:53:06.844Z,1034.16
2023-02-08T07:54:06.845Z,1034.16
2023-02-08T07:55:06.864Z,1034.19
2023-02-08T07:56:06.921Z,1034.17
2023-02-08T07:57:06.922Z,1034.18
2023-02-08T07:58:06.952Z,1034.16
2023-02-08T07:59:06.977Z,1034.21
2023-02-08T08:00:07.016Z,1034.19
2023-02-08T08:01:20.046Z,1034.20
2023-02-08T08:02:07.096Z,1034.16
2023-02-08T08:03:07.120Z,1034.14
2023-02-08T08:04:07.447Z,1034.15
2023-02-08T08:05:07.138Z,1034.12
2023-02-08T08:06:07.152Z,1034.08
2023-02-08T08:07:07.187Z,1034.07
2023-02-08T08:08:07.210Z,1034.06
2023-02-08T08:09:07.259Z,1034.09
2023-02-08T08:10:07.277Z,1034.07
2023-02-08T08:11:07.302Z,1034.11
2023-02-08T08:12:07.323Z,1034.10
2023-02-08T08:13:07.342Z,1034.11
2023-02-08T08:14:07.368Z,1034.10
2023-02-08T08:15:07.394Z,1034.13
2023-02-08T08:16:07.820Z,1034.14
2023-02-08T08:17:07.441Z,1034.13
2023-02-08T08:18:07.573Z,1034.13
2023-02-08T08:19:07.505Z,1034.11
2023-02-08T08:20:07.525Z,1034.10
2023-02-08T08:21:07.553Z,1034.14
2023-02-08T08:22:07.577Z,1034.13
2023-02-08T08:24:07.642Z,1034.15
2023-02-08T08:26:07.711Z,1034.13
2023-02-08T08:27:07.715Z,1034.14
2023-02-08T08:28:07.807Z,1034.15
2023-02-08T08:29:07.766Z,1034.18
2023-02-08T08:30:07.797Z,1034.13
2023-02-08T08:31:07.985Z,1034.11
2023-02-08T08:32:07.852Z,1034.12
2023-02-08T08:33:07.876Z,1034.14
2023-02-08T08:34:07.892Z,1034.12
2023-02-08T08:35:07.932Z,1034.16
2023-02-08T08:36:08.240Z,1034.15
2023-02-08T08:37:07.986Z,1034.17
2023-02-08T08:38:07.992Z,1034.18
2023-02-08T08:39:08.034Z,1034.18
2023-02-08T08:40:08.160Z,1034.14
2023-02-08T08:41:08.076Z,1034.12
2023-02-08T08:42:08.119Z,1034.15
2023-02-08T08:43:08.156Z,1034.12
2023-02-08T08:44:08.164Z,1034.13
2023-02-08T08:45:08.185Z,1034.15
2023-02-08T08:46:08.263Z,1034.12
2023-02-08T08:47:08.234Z,1034.12
2023-02-08T08:48:08.258Z,1034.13
2023-02-08T08:49:08.291Z,1034.11
2023-02-08T08:50:08.332Z,1034.11
2023-02-08T08:51:08.341Z,1034.10
2023-02-08T08:52:08.363Z,1034.08
2023-02-08T08:53:08.395Z,1034.08
2023-02-08T08:54:08.416Z,1034.11
2023-02-08T08:55:08.444Z,1034.12
2023-02-08T08:56:08.479Z,1034.07
2023-02-08T08:57:08.515Z,1034.06
2023-02-08T08:58:08.552Z,1034.04
2023-02-08T08:59:08.553Z,1034.03
2023-02-08T09:01:08.955Z,1034.01
2023-02-08T09:02:14.898Z,1034.03
2023-02-08T09:03:08.718Z,1034.04
2023-02-08T09:04:08.970Z,1033.98
2023-02-08T09:05:08.703Z,1034.00
2023-02-08T09:07:09.062Z,1034.04
2023-02-08T09:08:08.782Z,1034.04
2023-02-08T09:09:08.861Z,1034.04
2023-02-08T09:10:08.840Z,1034.04
2023-02-08T09:11:08.868Z,1034.03
2023-02-08T09:12:08.906Z,1034.02
2023-02-08T09:13:08.982Z,1034.00
2023-02-08T09:14:09.299Z,1034.02
2023-02-08T09:15:08.992Z,1034.04
2023-02-08T09:16:09.045Z,1033.97
2023-02-08T09:17:09.043Z,1034.02
2023-02-08T09:18:09.046Z,1034.02
2023-02-08T09:19:09.080Z,1034.01
2023-02-08T09:20:09.105Z,1034.03
2023-02-08T09:21:09.429Z,1034.05
2023-02-08T09:22:09.150Z,1034.04
2023-02-08T09:23:09.187Z,1034.05
2023-02-08T09:24:09.206Z,1034.05
2023-02-08T09:25:09.240Z,1034.06
2023-02-08T09:26:09.276Z,1034.04
2023-02-08T09:27:09.331Z,1034.07
2023-02-08T09:30:09.419Z,1034.06
2023-02-08T09:31:09.534Z,1034.05
2023-02-08T09:32:10.652Z,1034.04
2023-02-08T09:33:09.443Z,1034.03
2023-02-08T09:34:09.470Z,1034.04
2023-02-08T09:35:09.794Z,1034.03
2023-02-08T09:36:09.533Z,1034.01
2023-02-08T09:37:09.557Z,1033.98
2023-02-08T09:38:09.578Z,1034.02
2023-02-08T09:39:09.616Z,1033.99
2023-02-08T09:40:09.632Z,1033.98
2023-02-08T09:41:09.686Z,1033.95
2023-02-08T09:42:09.998Z,1034.00
2023-02-08T09:43:09.727Z,1033.96
2023-02-08T09:44:09.741Z,1033.97
2023-02-08T09:45:09.781Z,1033.94
2023-02-08T09:46:09.821Z,1033.96
2023-02-08T09:47:09.839Z,1033.98
2023-02-08T09:48:09.891Z,1034.02
2023-02-08T09:49:10.176Z,1034.03
2023-02-08T09:50:09.904Z,1034.00
2023-02-08T09:51:09.936Z,1034.02
2023-02-08T09:52:09.958Z,1033.98
2023-02-08T09:53:09.982Z,1033.95
2023-02-08T09:54:10.026Z,1034.00
2023-02-08T09:55:10.035Z,1033.98
2023-02-08T09:56:10.356Z,1033.98
2023-02-08T09:57:10.093Z,1033.98
2023-02-08T09:59:10.140Z,1033.95
2023-02-08T10:00:10.234Z,1033.92
2023-02-08T10:01:10.235Z,1033.92
2023-02-08T10:02:10.260Z,1033.91
2023-02-08T10:03:10.576Z,1033.87
2023-02-08T10:04:10.281Z,1033.86
2023-02-08T10:05:10.307Z,1033.87
2023-02-08T10:06:10.327Z,1033.86
2023-02-08T10:07:10.354Z,1033.89
2023-02-08T10:08:10.383Z,1033.93
2023-02-08T10:09:10.412Z,1033.93
2023-02-08T10:10:10.439Z,1033.87
2023-02-08T10:11:10.472Z,1033.86
2023-02-08T10:12:10.493Z,1033.87
2023-02-08T10:13:10.528Z,1033.89
2023-02-08T10:14:10.553Z,1033.86
2023-02-08T10:15:10.596Z,1033.93
2023-02-08T10:16:10.936Z,1033.91
2023-02-08T10:17:10.620Z,1033.94
2023-02-08T10:18:10.710Z,1033.91
2023-02-08T10:19:10.672Z,1033.93
2023-02-08T10:20:10.704Z,1033.88
2023-02-08T10:21:10.722Z,1033.93
2023-02-08T10:22:11.075Z,1033.89
2023-02-08T10:23:10.797Z,1033.89
2023-02-08T10:24:10.810Z,1033.91
2023-02-08T10:25:10.831Z,1033.90
2023-02-08T10:27:10.889Z,1033.92
2023-02-08T10:28:10.969Z,1033.88
2023-02-08T10:29:11.911Z,1033.90
2023-02-08T10:30:11.003Z,1033.87
2023-02-08T10:32:11.020Z,1033.84
2023-02-08T10:33:11.075Z,1033.86
2023-02-08T10:34:11.117Z,1033.87
2023-02-08T10:35:11.401Z,1033.87
2023-02-08T10:36:11.177Z,1033.86
2023-02-08T10:37:11.158Z,1033.83
2023-02-08T10:38:11.181Z,1033.85
2023-02-08T10:39:11.207Z,1033.84
2023-02-08T10:40:11.239Z,1033.87
2023-02-08T10:41:11.588Z,1033.90
2023-02-08T10:42:11.286Z,1033.89
2023-02-08T10:43:11.367Z,1033.89
2023-02-08T10:44:11.392Z,1033.90
2023-02-08T10:45:22.795Z,1033.88
2023-02-08T10:46:11.446Z,1033.90
2023-02-08T10:48:11.822Z,1033.90
2023-02-08T10:49:11.634Z,1033.90
2023-02-08T10:50:11.515Z,1033.89
2023-02-08T10:51:11.529Z,1033.88
2023-02-08T10:52:11.657Z,1033.91
2023-02-08T10:53:11.580Z,1033.87
2023-02-08T10:55:11.993Z,1033.87
2023-02-08T10:56:11.669Z,1033.85
2023-02-08T10:57:11.688Z,1033.86
2023-02-08T10:58:11.716Z,1033.79
2023-02-08T10:59:11.754Z,1033.80
2023-02-08T11:00:11.777Z,1033.81
2023-02-08T11:01:11.816Z,1033.83
2023-02-08T11:02:12.086Z,1033.79
2023-02-08T11:03:11.861Z,1033.80
2023-02-08T11:04:11.917Z,1033.83
2023-02-08T11:05:11.936Z,1033.79
2023-02-08T11:07:11.995Z,1033.79
2023-02-08T11:08:11.995Z,1033.76
2023-02-08T11:09:12.317Z,1033.76
2023-02-08T11:10:12.032Z,1033.73
2023-02-08T11:11:12.102Z,1033.73
2023-02-08T11:12:12.108Z,1033.67
2023-02-08T11:13:12.126Z,1033.77
2023-02-08T11:14:12.149Z,1033.71
2023-02-08T11:15:12.173Z,1033.72
2023-02-08T11:16:12.528Z,1033.75
2023-02-08T11:17:12.236Z,1033.73
2023-02-08T11:18:12.264Z,1033.78
2023-02-08T11:19:12.335Z,1033.75
2023-02-08T11:20:12.311Z,1033.72
2023-02-08T11:21:12.339Z,1033.67
2023-02-08T11:22:12.365Z,1033.66
2023-02-08T11:23:12.742Z,1033.66
2023-02-08T11:24:12.411Z,1033.68
2023-02-08T11:25:12.445Z,1033.64
2023-02-08T11:26:12.474Z,1033.64
2023-02-08T11:27:12.592Z,1033.62
2023-02-08T11:29:12.856Z,1033.62
2023-02-08T11:30:12.577Z,1033.61
2023-02-08T11:31:14.055Z,1033.65
2023-02-08T11:32:12.633Z,1033.62
2023-02-08T11:33:12.654Z,1033.59
2023-02-08T11:34:12.787Z,1033.56
2023-02-08T11:35:13.014Z,1033.49
2023-02-08T11:36:12.741Z,1033.51
2023-02-08T11:37:12.764Z,1033.48
2023-02-08T11:38:12.792Z,1033.46
2023-02-08T11:39:12.840Z,1033.45
2023-02-08T11:40:12.849Z,1033.43
2023-02-08T11:41:12.891Z,1033.42
2023-02-08T11:42:12.901Z,1033.42
2023-02-08T11:43:12.933Z,1033.45
2023-02-08T11:44:12.955Z,1033.44
2023-02-08T11:45:13.026Z,1033.42
2023-02-08T11:46:13.140Z,1033.42
2023-02-08T11:47:13.361Z,1033.41
2023-02-08T11:48:13.062Z,1033.40
2023-02-08T11:49:13.088Z,1033.38
2023-02-08T11:50:13.113Z,1033.35
2023-02-08T11:51:13.249Z,1033.35
2023-02-08T11:52:13.212Z,1033.31
2023-02-08T11:53:13.201Z,1033.31
2023-02-08T11:54:13.526Z,1033.26
2023-02-08T11:55:13.282Z,1033.24
2023-02-08T11:57:13.319Z,1033.20
2023-02-08T11:58:13.339Z,1033.21
2023-02-08T12:00:13.692Z,1033.16
2023-02-08T12:01:13.479Z,1033.16
2023-02-08T12:02:13.494Z,1033.14
2023-02-08T12:03:13.511Z,1033.15
2023-02-08T12:04:13.498Z,1033.14
2023-02-08T12:05:13.533Z,1033.07
2023-02-08T12:06:13.550Z,1033.07
2023-02-08T12:07:13.929Z,1033.08
2023-02-08T12:08:13.612Z,1033.04
2023-02-08T12:09:13.634Z,1032.98
2023-02-08T12:11:13.708Z,1032.97
2023-02-08T12:12:13.714Z,1032.95
2023-02-08T12:13:13.741Z,1032.89
2023-02-08T12:14:14.080Z,1032.88
2023-02-08T12:15:13.800Z,1032.85
2023-02-08T12:16:13.925Z,1032.85
2023-02-08T12:17:13.874Z,1032.85
2023-02-08T12:19:13.923Z,1032.85
2023-02-08T12:20:13.929Z,1032.86
2023-02-08T12:21:14.260Z,1032.84
2023-02-08T12:22:13.980Z,1032.79
2023-02-08T12:23:14.018Z,1032.78
2023-02-08T12:24:14.082Z,1032.76
2023-02-08T12:25:14.062Z,1032.73
2023-02-08T12:26:14.096Z,1032.76
2023-02-08T12:27:17.114Z,1032.75
2023-02-08T12:28:14.550Z,1032.75
2023-02-08T12:29:14.168Z,1032.80
2023-02-08T12:30:14.203Z,1032.76
2023-02-08T12:31:14.278Z,1032.78
2023-02-08T12:32:14.248Z,1032.76
2023-02-08T12:33:16.921Z,1032.75
2023-02-08T12:34:14.344Z,1032.74
2023-02-08T12:35:14.839Z,1032.74
2023-02-08T12:37:14.428Z,1032.69
2023-02-08T12:38:14.415Z,1032.69
2023-02-08T12:39:19.626Z,1032.64
2023-02-08T12:40:14.499Z,1032.65
2023-02-08T12:41:14.496Z,1032.64
2023-02-08T12:42:14.825Z,1032.61
2023-02-08T12:43:14.575Z,1032.58
2023-02-08T12:44:14.581Z,1032.58
2023-02-08T12:46:14.698Z,1032.55
2023-02-08T12:47:14.655Z,1032.58
2023-02-08T12:48:14.693Z,1032.53
2023-02-08T12:50:14.737Z,1032.56
2023-02-08T12:51:14.765Z,1032.53
2023-02-08T12:52:14.800Z,1032.52
2023-02-08T12:54:15.149Z,1032.57
2023-02-08T12:55:14.882Z,1032.57
2023-02-08T12:57:15.227Z,1032.58
2023-02-08T12:58:14.960Z,1032.52
2023-02-08T12:59:14.999Z,1032.55
2023-02-08T13:00:15.143Z,1032.51
2023-02-08T13:01:15.065Z,1032.47
2023-02-08T13:02:15.098Z,1032.47
2023-02-08T13:03:15.121Z,1032.44
2023-02-08T13:04:15.423Z,1032.43
2023-02-08T13:05:15.143Z,1032.40
2023-02-08T13:06:15.181Z,1032.39
2023-02-08T13:07:15.203Z,1032.40
2023-02-08T13:08:15.229Z,1032.38
2023-02-08T13:09:15.297Z,1032.33
2023-02-08T13:10:15.339Z,1032.37
2023-02-08T13:11:20.224Z,1032.38
2023-02-08T13:12:15.345Z,1032.37
2023-02-08T13:13:15.361Z,1032.34
2023-02-08T13:14:15.473Z,1032.35
2023-02-08T13:15:28.441Z,1032.37
2023-02-08T13:16:15.519Z,1032.35
2023-02-08T13:17:15.485Z,1032.34
2023-02-08T13:18:15.809Z,1032.34
2023-02-08T13:19:15.545Z,1032.31
2023-02-08T13:20:15.566Z,1032.30
2023-02-08T13:21:15.588Z,1032.26